Time;durP1;ratioP1;P1;durP2;ratioP2;P2;SDS_P1;SDS_P2;PMS_P1;PMS_P2;Temp;Humidity;BMP_temperature;BMP_pressure;BME280_temperature;BME280_humidity;BME280_pressure;Samples;Min_cycle;Max_cycle;Signal;HPM_P1;HPM_P2
2021/12/29 00:01:46;;;;;;;105.40;58.30;;;;;;;8.01;61.63;99347.59;4982688;28;120464;-79
2021/12/29 00:04:12;;;;;;;112.18;60.25;;;;;;;8.00;61.95;99354.28;4932864;28;119667;-80
2021/12/29 00:06:38;;;;;;;109.70;59.13;;;;;;;7.95;61.60;99341.25;4953745;28;120121;-81
2021/12/29 00:09:04;;;;;;;110.60;60.47;;;;;;;7.93;61.89;99353.88;4980925;28;119603;-80
2021/12/29 00:11:30;;;;;;;109.90;60.13;;;;;;;7.91;61.72;99351.59;4965458;28;122035;-80
2021/12/29 00:13:56;;;;;;;107.20;59.42;;;;;;;7.89;62.06;99354.03;4963992;28;120109;-78
2021/12/29 00:16:21;;;;;;;107.43;59.65;;;;;;;7.86;62.34;99354.22;4933032;28;120753;-79
2021/12/29 00:18:47;;;;;;;112.65;60.80;;;;;;;7.81;61.88;99350.16;4965783;28;121907;-81
2021/12/29 00:21:14;;;;;;;102.82;58.22;;;;;;;7.74;62.65;99342.28;4946589;28;120222;-80
2021/12/29 00:23:40;;;;;;;97.57;56.22;;;;;;;7.78;62.43;99348.34;4932184;28;121122;-79
2021/12/29 00:26:05;;;;;;;103.28;57.63;;;;;;;7.79;62.71;99360.75;4983446;28;119335;-80
2021/12/29 00:28:31;;;;;;;102.80;58.45;;;;;;;7.83;62.66;99372.28;4965891;28;124557;-78
2021/12/29 00:30:59;;;;;;;108.20;59.47;;;;;;;7.84;62.18;99379.25;4948604;28;119509;-79
2021/12/29 00:33:42;;;;;;;;;;;;;;;7.83;62.86;99383.22;4952016;28;123529;-79
2021/12/29 00:36:27;;;;;;;100.13;57.67;;;;;;;7.82;62.21;99381.69;4964868;28;119586;-78
2021/12/29 00:39:11;;;;;;;100.47;57.05;;;;;;;7.83;62.33;99380.47;4981140;28;121595;-78
2021/12/29 00:41:55;;;;;;;101.10;56.67;;;;;;;7.83;62.55;99401.56;4950964;28;121697;-81
2021/12/29 00:44:21;;;;;;;106.15;59.17;;;;;;;7.77;62.40;99395.19;4950117;28;120297;-81
2021/12/29 00:47:17;;;;;;;104.47;56.97;;;;;;;7.73;62.35;99395.38;4955809;28;120427;-81
2021/12/29 00:49:43;;;;;;;104.70;58.05;;;;;;;7.78;62.53;99408.38;4947146;28;122694;-81
2021/12/29 00:52:09;;;;;;;103.22;58.78;;;;;;;7.74;62.21;99401.59;4970473;28;120441;-81
2021/12/29 00:54:37;;;;;;;105.55;59.03;;;;;;;7.77;62.21;99401.41;4965446;28;119871;-81
2021/12/29 00:57:03;;;;;;;104.72;60.67;;;;;;;7.74;62.20;99394.16;4951327;28;119659;-80
2021/12/29 00:59:28;;;;;;;91.45;54.65;;;;;;;7.71;61.72;99397.81;4965585;28;120051;-79
2021/12/29 01:01:54;;;;;;;113.55;60.30;;;;;;;7.63;61.95;99393.91;4932523;28;122858;-81
2021/12/29 01:04:21;;;;;;;108.13;60.45;;;;;;;7.66;62.65;99412.84;4949759;28;123040;-81
2021/12/29 01:06:47;;;;;;;102.15;59.78;;;;;;;7.59;62.69;99406.97;4976721;28;120917;-81
2021/12/29 01:09:12;;;;;;;112.78;60.83;;;;;;;7.60;62.98;99417.41;4965104;28;122466;-80
2021/12/29 01:11:38;;;;;;;110.55;60.83;;;;;;;7.57;62.84;99417.56;4970279;28;119797;-80
2021/12/29 01:14:05;;;;;;;109.80;60.00;;;;;;;7.54;62.90;99421.19;4964702;28;121737;-81
2021/12/29 01:19:00;;;;;;;104.38;58.83;;;;;;;7.55;62.88;99430.91;4964841;28;122194;-79
2021/12/29 01:21:25;;;;;;;106.57;59.85;;;;;;;7.53;63.02;99436.06;4965125;28;119848;-80
2021/12/29 01:23:51;;;;;;;107.22;59.42;;;;;;;7.55;62.96;99442.56;4965868;28;120061;-81
2021/12/29 01:26:17;;;;;;;98.03;54.65;;;;;;;7.56;63.00;99459.69;4962724;28;122202;-79
2021/12/29 01:28:43;;;;;;;97.50;56.10;;;;;;;7.56;62.81;99454.25;4962149;28;122568;-79
2021/12/29 01:31:09;;;;;;;93.05;54.53;;;;;;;7.59;62.39;99456.84;4965970;28;119728;-80
2021/12/29 01:33:34;;;;;;;94.55;52.92;;;;;;;7.66;62.24;99477.59;4952018;28;119678;-81
2021/12/29 01:36:00;;;;;;;99.90;57.47;;;;;;;7.66;62.33;99483.03;4964970;28;120185;-83
2021/12/29 01:38:26;;;;;;;101.03;57.67;;;;;;;7.61;63.04;99480.94;4926539;28;122494;-81
2021/12/29 01:40:51;;;;;;;96.20;55.00;;;;;;;7.61;62.14;99475.47;4983549;28;120525;-78
2021/12/29 01:43:18;;;;;;;92.28;54.90;;;;;;;7.70;61.83;99494.53;4966601;28;120340;-83
2021/12/29 01:45:44;;;;;;;99.72;56.38;;;;;;;7.67;62.68;99495.47;4965824;28;121664;-81
2021/12/29 01:48:10;;;;;;;95.32;55.97;;;;;;;7.66;62.71;99488.50;4965322;28;121147;-81
2021/12/29 01:50:38;;;;;;;87.72;51.83;;;;;;;7.66;62.18;99483.03;4966630;28;121753;-81
2021/12/29 01:53:08;;;;;;;86.80;53.17;;;;;;;7.68;62.18;99495.00;4966110;28;122397;-80
2021/12/29 01:55:38;;;;;;;108.90;60.38;;;;;;;7.76;62.40;99500.88;4985337;28;122644;-79
2021/12/29 01:58:05;;;;;;;97.20;55.90;;;;;;;7.77;62.61;99510.59;4951074;28;124059;-81
2021/12/29 02:00:33;;;;;;;105.38;58.95;;;;;;;7.79;62.50;99510.88;4948392;28;123014;-79
2021/12/29 02:02:59;;;;;;;102.45;57.05;;;;;;;7.75;62.57;99507.56;4964503;28;120097;-81
2021/12/29 02:05:25;;;;;;;109.32;59.40;;;;;;;7.73;62.40;99510.00;4938178;28;122214;-82
2021/12/29 02:07:51;;;;;;;99.57;56.80;;;;;;;7.76;62.54;99514.53;4967103;28;120254;-80
2021/12/29 02:10:18;;;;;;;96.50;56.20;;;;;;;7.83;62.90;99522.44;4950293;28;119767;-79
2021/12/29 02:12:44;;;;;;;103.50;57.53;;;;;;;7.87;62.37;99533.94;4933002;28;123644;-79
2021/12/29 02:15:11;;;;;;;106.95;56.65;;;;;;;7.89;62.11;99531.50;4961803;28;122798;-80
2021/12/29 02:17:36;;;;;;;104.30;56.08;;;;;;;7.83;62.40;99527.88;4955203;28;120110;-81
2021/12/29 02:20:08;;;;;;;96.25;53.72;;;;;;;7.91;62.37;99536.50;4949181;28;123178;-79
2021/12/29 02:22:43;;;;;;;96.57;53.88;;;;;;;7.89;61.93;99534.22;4948286;28;121578;-81
2021/12/29 02:25:32;;;;;;;96.70;55.25;;;;;;;7.90;61.82;99535.00;4967618;28;120319;-80
2021/12/29 02:27:56;;;;;;;103.82;57.42;;;;;;;7.82;62.02;99531.06;4981842;28;124526;-81
2021/12/29 02:30:25;;;;;;;104.03;57.17;;;;;;;7.87;62.39;99533.94;4967392;28;121683;-81
2021/12/29 02:32:55;;;;;;;105.35;57.85;;;;;;;7.82;62.55;99531.06;4984864;28;119883;-81
2021/12/29 02:35:22;;;;;;;99.00;56.90;;;;;;;7.88;62.21;99543.66;4951698;28;123574;-81
2021/12/29 02:37:48;;;;;;;104.50;57.30;;;;;;;7.92;62.11;99546.22;4935583;28;120434;-78
2021/12/29 02:40:14;;;;;;;109.72;58.42;;;;;;;7.92;62.40;99543.47;4956932;28;122104;-80
2021/12/29 02:42:42;;;;;;;104.70;56.80;;;;;;;7.95;62.78;99546.03;4951099;28;119677;-79
2021/12/29 02:45:13;;;;;;;103.00;57.88;;;;;;;7.88;62.69;99535.44;4966809;28;119445;-81
2021/12/29 02:47:39;;;;;;;103.18;56.78;;;;;;;7.97;62.27;99551.03;4952561;28;122583;-81
2021/12/29 02:50:06;;;;;;;102.40;57.97;;;;;;;7.94;62.71;99549.22;4953459;28;120140;-81
2021/12/29 02:52:32;;;;;;;108.20;58.92;;;;;;;7.89;62.47;99549.84;4968471;28;121741;-81
2021/12/29 02:54:57;;;;;;;115.00;61.83;;;;;;;7.87;62.76;99561.25;4968646;28;122713;-81
2021/12/29 02:57:23;;;;;;;113.13;61.83;;;;;;;7.84;62.37;99553.97;4948261;28;119516;-81
2021/12/29 02:59:48;;;;;;;118.53;65.68;;;;;;;7.76;62.86;99539.09;4954168;28;119502;-81
2021/12/29 03:02:14;;;;;;;121.35;64.22;;;;;;;7.81;62.91;99548.69;4969697;28;119765;-82
2021/12/29 03:04:39;;;;;;;128.25;66.93;;;;;;;7.75;62.84;99555.94;4968411;28;122416;-81
2021/12/29 03:07:05;;;;;;;131.93;68.95;;;;;;;7.76;63.17;99569.13;4966603;28;122529;-79
2021/12/29 03:09:31;;;;;;;123.07;66.22;;;;;;;7.84;63.21;99589.47;4952495;28;120065;-82
2021/12/29 03:11:56;;;;;;;130.60;67.50;;;;;;;7.81;63.12;99587.66;4933901;28;122406;-81
2021/12/29 03:14:24;;;;;;;129.60;68.28;;;;;;;7.79;63.05;99584.59;4966510;28;119758;-77
2021/12/29 03:16:51;;;;;;;130.70;69.30;;;;;;;7.88;63.16;99600.97;4968114;28;120173;-82
2021/12/29 03:19:17;;;;;;;132.40;70.95;;;;;;;7.87;63.10;99595.97;4950485;28;120398;-80
2021/12/29 03:21:44;;;;;;;132.32;68.47;;;;;;;7.82;63.60;99585.69;4971253;28;124358;-81
2021/12/29 03:24:12;;;;;;;144.30;71.43;;;;;;;7.79;63.62;99592.78;4984895;28;119420;-81
2021/12/29 03:26:38;;;;;;;134.45;69.32;;;;;;;7.69;62.99;99574.91;4984504;28;119852;-80
2021/12/29 03:29:06;;;;;;;136.25;71.25;;;;;;;7.73;63.66;99585.66;4964197;28;119444;-81
2021/12/29 03:31:36;;;;;;;132.65;67.00;;;;;;;7.77;63.10;99584.28;4986581;28;119566;-81
2021/12/29 03:34:02;;;;;;;134.27;67.68;;;;;;;7.69;63.12;99564.00;4969338;28;123203;-79
2021/12/29 03:36:28;;;;;;;139.13;71.32;;;;;;;7.68;62.69;99574.16;4953591;28;121152;-80
2021/12/29 03:38:53;;;;;;;136.50;67.32;;;;;;;7.76;62.65;99596.44;4969911;28;121810;-81
2021/12/29 03:41:20;;;;;;;137.40;68.20;;;;;;;7.74;63.05;99598.84;4970072;28;122615;-82
2021/12/29 03:43:47;;;;;;;137.95;71.32;;;;;;;7.80;63.18;99610.69;4973148;28;120752;-81
2021/12/29 03:46:14;;;;;;;140.98;70.13;;;;;;;7.68;63.55;99617.06;4982689;28;120414;-81
2021/12/29 03:48:42;;;;;;;144.00;69.63;;;;;;;7.79;63.21;99633.72;4970784;28;119575;-80
2021/12/29 03:51:08;;;;;;;132.68;68.40;;;;;;;7.77;63.05;99643.59;4966591;28;121253;-80
2021/12/29 03:53:34;;;;;;;142.00;68.35;;;;;;;7.84;62.85;99652.25;4968271;28;122839;-83
2021/12/29 03:56:01;;;;;;;139.25;69.40;;;;;;;7.87;63.16;99667.72;4969653;28;119997;-80
2021/12/29 03:58:28;;;;;;;133.35;67.13;;;;;;;7.87;63.26;99662.25;4970055;28;119977;-81
2021/12/29 04:00:57;;;;;;;135.75;68.32;;;;;;;7.88;62.93;99661.03;4965989;28;122992;-80
2021/12/29 04:03:23;;;;;;;132.55;69.05;;;;;;;7.86;62.68;99660.75;4971813;28;119688;-79
2021/12/29 04:05:49;;;;;;;139.05;70.25;;;;;;;7.83;62.76;99650.72;4991008;28;120897;-80
2021/12/29 04:08:15;;;;;;;136.00;69.38;;;;;;;7.83;62.92;99658.16;4954014;28;119503;-82
2021/12/29 04:10:40;;;;;;;136.70;69.20;;;;;;;7.81;62.92;99661.34;4969634;28;122364;-81
2021/12/29 04:13:06;;;;;;;135.95;69.07;;;;;;;7.83;62.94;99672.56;4984818;28;119955;-81
2021/12/29 04:15:33;;;;;;;137.65;70.50;;;;;;;7.79;62.95;99668.47;4968352;28;120974;-79
2021/12/29 04:17:59;;;;;;;140.43;68.85;;;;;;;7.87;63.15;99673.19;4970757;28;119446;-81
2021/12/29 04:23:17;;;;;;;137.00;68.32;;;;;;;7.87;62.43;99675.16;4987279;28;120130;-80
2021/12/29 04:25:48;;;;;;;134.73;70.60;;;;;;;7.77;63.26;99677.09;4986740;28;119499;-81
2021/12/29 04:28:20;;;;;;;138.00;70.75;;;;;;;7.78;62.77;99696.97;4957010;28;123336;-80
2021/12/29 04:30:47;;;;;;;138.00;70.07;;;;;;;7.84;63.20;99709.59;4983925;28;120665;-80
2021/12/29 04:33:14;;;;;;;141.82;69.95;;;;;;;7.85;62.96;99724.75;4946401;28;122803;-80
2021/12/29 04:35:40;;;;;;;139.13;69.85;;;;;;;7.81;63.05;99718.69;4950408;28;120513;-78
2021/12/29 04:38:07;;;;;;;143.43;73.47;;;;;;;7.83;62.98;99721.72;4950459;28;121942;-81
2021/12/29 04:40:33;;;;;;;136.07;68.88;;;;;;;7.88;63.10;99732.03;4966521;28;123666;-80
2021/12/29 04:42:59;;;;;;;146.38;72.05;;;;;;;7.85;63.32;99732.94;4966532;28;123188;-81
2021/12/29 04:45:24;;;;;;;150.20;71.65;;;;;;;7.81;62.85;99732.34;4970905;28;119744;-82
2021/12/29 04:47:50;;;;;;;153.52;74.10;;;;;;;7.84;62.83;99734.16;4985230;28;119948;-81
2021/12/29 04:50:25;;;;;;;159.52;76.28;;;;;;;7.91;62.89;99750.22;4988124;28;120015;-80
2021/12/29 04:52:53;;;;;;;163.13;76.88;;;;;;;7.83;62.89;99746.28;4967308;28;122915;-81
2021/12/29 04:55:19;;;;;;;168.15;77.90;;;;;;;7.85;63.50;99746.59;4954477;28;120270;-82
2021/12/29 04:57:45;;;;;;;160.80;76.60;;;;;;;7.90;62.68;99765.09;4951641;28;123304;-82
2021/12/29 05:00:11;;;;;;;151.80;75.03;;;;;;;7.83;63.13;99764.63;4969200;28;119952;-82
2021/12/29 05:02:36;;;;;;;154.00;73.28;;;;;;;7.93;63.14;99777.84;4967967;28;120484;-81
2021/12/29 05:05:17;;;;;;;148.88;71.35;;;;;;;7.93;63.04;99780.56;4949315;28;121898;-82
2021/12/29 05:10:27;;;;;;;153.70;74.90;;;;;;;7.87;62.69;99771.47;4971136;28;119901;-82
2021/12/29 05:12:53;;;;;;;145.45;71.72;;;;;;;7.90;62.48;99778.75;4950765;28;122905;-82
2021/12/29 05:15:18;;;;;;;139.32;72.30;;;;;;;7.98;62.52;99776.47;4982140;28;119724;-81
2021/12/29 05:17:44;;;;;;;149.32;72.90;;;;;;;7.91;62.38;99772.06;4969598;28;120718;-80
2021/12/29 05:20:09;;;;;;;144.57;71.88;;;;;;;7.97;62.53;99775.72;4984690;28;119981;-82
2021/12/29 05:22:35;;;;;;;149.02;73.85;;;;;;;7.89;62.67;99766.31;4984906;28;120208;-80
2021/12/29 05:25:01;;;;;;;139.40;69.50;;;;;;;7.97;62.53;99774.94;4982992;28;119514;-81
2021/12/29 05:27:26;;;;;;;156.05;73.90;;;;;;;7.94;62.54;99773.88;4967324;28;122680;-83
2021/12/29 05:29:52;;;;;;;155.23;73.68;;;;;;;7.90;62.31;99759.63;4968620;28;120257;-82
2021/12/29 05:32:17;;;;;;;161.77;73.63;;;;;;;7.96;61.86;99779.66;4966992;28;123220;-81
2021/12/29 05:34:43;;;;;;;165.48;75.38;;;;;;;7.95;62.23;99774.66;4970445;28;120589;-81
2021/12/29 05:37:08;;;;;;;177.25;77.07;;;;;;;7.95;62.70;99778.13;4968786;28;120052;-81
2021/12/29 05:39:34;;;;;;;163.07;75.40;;;;;;;7.88;62.60;99764.78;4952749;28;123117;-80
2021/12/29 05:42:00;;;;;;;189.68;81.30;;;;;;;7.95;62.63;99785.56;4936155;28;120027;-82
2021/12/29 05:44:25;;;;;;;196.73;82.90;;;;;;;7.86;63.43;99774.66;4968319;28;121836;-79
2021/12/29 05:46:51;;;;;;;222.80;86.22;;;;;;;7.83;63.34;99773.59;4981372;28;123051;-81
2021/12/29 05:49:17;;;;;;;200.25;85.18;;;;;;;7.83;63.24;99776.31;4967385;28;119956;-80
2021/12/29 05:51:42;;;;;;;215.70;85.78;;;;;;;7.83;63.45;99773.59;4965754;28;119516;-81
2021/12/29 05:54:08;;;;;;;200.05;82.50;;;;;;;7.80;63.07;99760.06;4988837;28;119681;-78
2021/12/29 05:56:33;;;;;;;191.13;79.85;;;;;;;7.86;62.59;99778.13;4985899;28;120097;-82
2021/12/29 05:59:02;;;;;;;185.05;79.90;;;;;;;7.75;63.02;99761.44;4966759;28;119716;-80
2021/12/29 06:01:28;;;;;;;194.75;83.88;;;;;;;7.80;62.95;99771.75;4969527;28;119748;-83
2021/12/29 06:03:55;;;;;;;183.00;78.75;;;;;;;7.79;63.29;99766.72;4970316;28;121677;-80
2021/12/29 06:06:20;;;;;;;200.77;83.63;;;;;;;7.82;63.27;99783.00;4969233;28;122530;-83
2021/12/29 06:08:46;;;;;;;196.02;80.32;;;;;;;7.87;63.06;99789.81;4968423;28;119923;-84
2021/12/29 06:11:12;;;;;;;211.13;84.55;;;;;;;7.81;63.29;99791.63;4985474;28;121723;-83
2021/12/29 06:13:37;;;;;;;205.93;82.57;;;;;;;7.82;62.87;99793.91;4952336;28;120161;-82
2021/12/29 06:16:03;;;;;;;213.00;85.57;;;;;;;7.74;63.48;99798.13;4970721;28;119817;-80
2021/12/29 06:18:28;;;;;;;211.10;83.45;;;;;;;7.84;63.23;99818.78;4967365;28;120933;-82
2021/12/29 06:20:54;;;;;;;216.05;86.55;;;;;;;7.75;63.24;99802.38;4968258;28;120084;-85
2021/12/29 06:23:20;;;;;;;209.18;86.22;;;;;;;7.79;63.61;99808.44;4982482;28;121004;-83
2021/12/29 06:25:46;;;;;;;216.30;86.32;;;;;;;7.85;64.08;99823.03;4951110;28;123506;-84
2021/12/29 06:28:12;;;;;;;219.60;87.22;;;;;;;7.80;63.64;99812.69;4965983;28;119515;-83
2021/12/29 06:30:37;;;;;;;245.20;87.03;;;;;;;7.87;63.82;99822.59;4981949;28;119902;-80
2021/12/29 06:33:03;;;;;;;238.68;89.30;;;;;;;7.77;63.75;99816.31;4930094;28;122416;-82
2021/12/29 06:35:28;;;;;;;203.20;86.32;;;;;;;7.76;63.69;99824.97;4951455;28;119679;-82
2021/12/29 06:37:54;;;;;;;226.85;88.70;;;;;;;7.81;64.30;99841.53;4949357;28;123107;-84
2021/12/29 06:40:20;;;;;;;237.45;90.25;;;;;;;7.82;64.07;99851.25;4965627;28;120985;-81
2021/12/29 06:42:45;;;;;;;243.45;85.80;;;;;;;7.71;63.48;99842.69;4950319;28;121616;-84
2021/12/29 06:45:12;;;;;;;193.55;82.28;;;;;;;7.79;63.77;99852.13;4965949;28;122788;-84
2021/12/29 06:47:38;;;;;;;207.48;83.90;;;;;;;7.80;63.24;99861.06;4967809;28;120718;-82
2021/12/29 06:50:05;;;;;;;189.02;82.00;;;;;;;7.82;63.83;99867.63;4969101;28;119461;-84
2021/12/29 06:52:31;;;;;;;217.10;86.43;;;;;;;7.75;63.45;99846.03;4935744;28;122945;-82
2021/12/29 06:54:56;;;;;;;212.98;87.30;;;;;;;7.77;63.71;99857.28;4953047;28;119692;-81
2021/12/29 06:57:22;;;;;;;208.52;84.80;;;;;;;7.85;64.06;99872.19;4960273;28;121731;-83
2021/12/29 06:59:48;;;;;;;226.00;88.13;;;;;;;7.87;63.31;99869.00;4955613;28;123732;-82
2021/12/29 07:02:16;;;;;;;212.27;84.70;;;;;;;7.81;63.25;99873.53;4966760;28;122050;-79
2021/12/29 07:04:43;;;;;;;225.15;86.03;;;;;;;7.79;63.58;99873.19;4948216;28;120848;-82
2021/12/29 07:07:09;;;;;;;353.75;94.72;;;;;;;7.75;63.68;99873.34;4935474;28;119849;-79
2021/12/29 07:09:34;;;;;;;227.27;84.70;;;;;;;7.73;63.47;99881.22;4966797;28;121949;-83
2021/12/29 07:12:01;;;;;;;236.63;85.53;;;;;;;7.82;63.69;99905.09;4956917;28;120611;-83
2021/12/29 07:14:27;;;;;;;230.02;89.43;;;;;;;7.81;63.61;99907.06;4966198;28;119909;-83
2021/12/29 07:16:52;;;;;;;231.98;87.65;;;;;;;7.80;63.57;99913.69;4963942;28;119858;-81
2021/12/29 07:19:19;;;;;;;232.13;90.72;;;;;;;7.78;64.35;99920.81;4973126;28;120289;-82
2021/12/29 07:21:46;;;;;;;212.50;84.47;;;;;;;7.76;63.97;99917.78;4968400;28;122186;-83
2021/12/29 07:24:12;;;;;;;223.63;87.30;;;;;;;7.74;64.04;99923.69;4966801;28;122677;-81
2021/12/29 07:26:38;;;;;;;243.02;92.32;;;;;;;7.82;63.82;99937.84;4969834;28;120238;-82
2021/12/29 07:29:06;;;;;;;230.07;88.63;;;;;;;7.82;63.85;99941.34;4954817;28;121820;-81
2021/12/29 07:31:31;;;;;;;222.55;87.60;;;;;;;7.77;63.78;99930.22;4936204;28;122608;-82
2021/12/29 07:33:58;;;;;;;230.15;90.07;;;;;;;7.83;63.73;99945.59;4967903;28;120485;-82
2021/12/29 07:36:23;;;;;;;214.35;85.95;;;;;;;7.83;63.74;99955.75;4969129;28;122223;-83
2021/12/29 07:38:49;;;;;;;226.40;87.53;;;;;;;7.84;64.02;99963.50;4969015;28;122704;-82
2021/12/29 07:41:15;;;;;;;252.50;90.47;;;;;;;7.82;64.08;99960.44;4989928;28;119341;-80
2021/12/29 07:43:41;;;;;;;270.85;88.70;;;;;;;7.76;63.63;99956.00;4970048;28;123861;-82
2021/12/29 07:46:07;;;;;;;223.05;84.47;;;;;;;7.73;64.01;99956.91;4962899;28;121766;-77
2021/12/29 07:48:33;;;;;;;209.65;85.80;;;;;;;7.83;63.75;99983.81;4982090;28;122503;-81
2021/12/29 07:51:02;;;;;;;230.52;82.95;;;;;;;7.73;63.85;99970.53;4969408;28;123186;-79
2021/12/29 07:53:27;;;;;;;211.70;85.32;;;;;;;7.78;63.75;99981.63;4968581;28;119933;-82
2021/12/29 07:55:54;;;;;;;203.18;85.50;;;;;;;7.79;64.27;99977.69;4970068;28;119825;-81
2021/12/29 07:58:20;;;;;;;241.52;84.32;;;;;;;7.71;63.84;99971.00;4968250;28;123343;-81
2021/12/29 08:00:47;;;;;;;195.02;81.38;;;;;;;7.79;63.90;99985.13;4970108;28;119616;-81
2021/12/29 08:03:13;;;;;;;207.95;85.30;;;;;;;7.78;63.89;99989.84;4988318;28;121019;-82
2021/12/29 08:05:40;;;;;;;196.23;82.82;;;;;;;7.78;63.21;99989.84;4969764;28;120317;-81
2021/12/29 08:08:10;;;;;;;199.50;82.82;;;;;;;7.73;64.00;99979.50;4986179;28;120323;-82
2021/12/29 08:10:40;;;;;;;211.82;86.38;;;;;;;7.74;63.79;99981.03;4952024;28;120086;-81
2021/12/29 08:13:07;;;;;;;216.18;85.65;;;;;;;7.68;63.95;99975.38;4948568;28;121313;-80
2021/12/29 08:15:33;;;;;;;217.80;84.43;;;;;;;7.74;64.00;99978.28;4937832;28;122372;-81
2021/12/29 08:18:04;;;;;;;235.98;86.95;;;;;;;7.79;63.99;99977.69;4953200;28;121135;-81
2021/12/29 08:20:32;;;;;;;194.13;83.13;;;;;;;7.80;63.92;99971.03;4968912;28;121417;-82
2021/12/29 08:22:58;;;;;;;214.63;84.63;;;;;;;7.79;64.18;99966.03;4954776;28;122441;-82
2021/12/29 08:25:25;;;;;;;201.20;82.45;;;;;;;7.82;64.20;99965.91;4988296;28;120600;-80
2021/12/29 08:27:50;;;;;;;171.68;80.68;;;;;;;7.80;63.67;99962.09;4929638;28;121786;-78
2021/12/29 08:30:16;;;;;;;203.25;83.57;;;;;;;7.85;64.04;99965.00;4968171;28;122101;-82
2021/12/29 08:32:42;;;;;;;238.02;84.63;;;;;;;7.82;63.12;99963.19;4968199;28;119457;-83
2021/12/29 08:35:08;;;;;;;204.75;84.38;;;;;;;7.86;62.96;99966.53;4970758;28;122464;-82
2021/12/29 08:37:34;;;;;;;198.80;82.60;;;;;;;7.80;63.54;99957.38;4967502;28;122005;-83
2021/12/29 08:40:01;;;;;;;216.82;87.40;;;;;;;7.89;63.44;99970.34;4950746;28;122384;-83
2021/12/29 08:42:27;;;;;;;216.50;86.72;;;;;;;7.90;64.13;99980.81;4967677;28;119845;-80
2021/12/29 08:44:52;;;;;;;243.43;86.88;;;;;;;7.86;63.35;99971.22;4986120;28;119730;-82
2021/12/29 08:47:18;;;;;;;230.10;88.22;;;;;;;7.92;63.18;99986.56;4972991;28;119627;-82
2021/12/29 08:49:44;;;;;;;209.70;88.03;;;;;;;7.86;63.44;99980.19;4952703;28;122850;-82
2021/12/29 08:52:09;;;;;;;206.38;84.22;;;;;;;7.83;64.11;99983.06;4967260;28;119870;-79
2021/12/29 08:54:36;;;;;;;213.77;86.68;;;;;;;7.92;63.64;99991.28;4967887;28;123629;-80
2021/12/29 08:57:02;;;;;;;218.48;88.72;;;;;;;7.93;63.64;100001.75;4984632;28;119788;-80
2021/12/29 08:59:28;;;;;;;214.43;87.32;;;;;;;7.97;63.60;99993.41;4969010;28;119658;-81
2021/12/29 09:01:54;;;;;;;223.60;88.15;;;;;;;8.05;63.27;100007.56;4949874;28;121706;-81
2021/12/29 09:04:20;;;;;;;211.30;85.13;;;;;;;8.05;63.36;100002.13;4948882;28;122799;-77
2021/12/29 09:06:46;;;;;;;216.48;88.20;;;;;;;8.06;63.45;100000.91;4963885;28;119811;-79
2021/12/29 09:09:11;;;;;;;220.38;85.60;;;;;;;8.06;62.83;99989.97;4970511;28;121816;-82
2021/12/29 09:11:38;;;;;;;223.38;88.00;;;;;;;7.96;63.25;99979.00;4948626;28;119875;-79
2021/12/29 09:14:03;;;;;;;233.80;90.15;;;;;;;7.96;63.46;99981.72;4968120;28;121948;-79
2021/12/29 09:16:29;;;;;;;223.23;90.70;;;;;;;7.99;63.60;99993.72;4982690;28;122131;-79
2021/12/29 09:18:55;;;;;;;219.27;87.70;;;;;;;7.99;63.13;99991.75;4969821;28;120242;-81
2021/12/29 09:21:21;;;;;;;249.05;89.78;;;;;;;8.06;63.63;100004.41;4967986;28;122318;-80
2021/12/29 09:23:47;;;;;;;219.95;88.57;;;;;;;8.01;63.81;99997.53;4931809;28;122679;-80
2021/12/29 09:26:15;;;;;;;223.57;86.63;;;;;;;8.01;63.39;100000.25;4947879;28;119576;-79
2021/12/29 09:28:44;;;;;;;253.02;88.93;;;;;;;8.07;63.75;100008.66;4968795;28;120260;-81
2021/12/29 09:31:09;;;;;;;239.85;88.25;;;;;;;8.01;63.61;100000.25;4960699;28;119583;-80
2021/12/29 09:33:35;;;;;;;232.93;88.13;;;;;;;8.01;63.35;99992.06;4931155;28;121688;-80
2021/12/29 09:36:02;;;;;;;197.40;84.47;;;;;;;8.06;63.11;100012.59;4958330;28;120859;-79
2021/12/29 09:38:32;;;;;;;197.82;85.80;;;;;;;8.11;63.19;100014.72;4978180;28;119882;-80
2021/12/29 09:40:58;;;;;;;201.65;84.57;;;;;;;8.11;63.40;100001.06;4976130;28;122390;-80
2021/12/29 09:43:24;;;;;;;197.07;80.47;;;;;;;8.04;63.31;100004.06;4951249;28;123095;-81
2021/12/29 09:45:51;;;;;;;191.15;81.10;;;;;;;8.10;63.45;100009.72;4970011;28;120426;-79
2021/12/29 09:48:17;;;;;;;203.88;80.85;;;;;;;8.04;63.32;100004.06;4965279;28;121808;-80
2021/12/29 09:50:44;;;;;;;186.93;81.63;;;;;;;8.06;63.15;100017.28;4950988;28;120335;-80
2021/12/29 09:53:10;;;;;;;191.00;81.13;;;;;;;7.99;63.17;100010.88;4959048;28;122613;-80
2021/12/29 09:55:37;;;;;;;275.45;89.78;;;;;;;8.04;63.57;100008.75;4946839;28;123865;-78
2021/12/29 09:58:05;;;;;;;270.48;89.65;;;;;;;8.05;63.55;100016.53;4979914;28;119673;-79
2021/12/29 10:00:34;;;;;;;235.02;84.57;;;;;;;7.98;63.79;100011.31;4962572;28;122888;-78
2021/12/29 10:03:04;;;;;;;296.17;83.32;;;;;;;8.07;63.45;100021.53;4979521;28;120113;-78
2021/12/29 10:05:31;;;;;;;247.07;81.40;;;;;;;8.07;63.69;100027.00;4933268;28;119847;-81
2021/12/29 10:07:59;;;;;;;273.40;84.40;;;;;;;8.06;63.25;100023.50;4964699;28;121830;-80
2021/12/29 10:10:25;;;;;;;282.80;86.72;;;;;;;8.06;63.93;100017.28;4962790;28;122663;-78
2021/12/29 10:12:51;;;;;;;272.50;82.53;;;;;;;7.95;63.74;100010.25;4966234;28;119610;-79
2021/12/29 10:15:16;;;;;;;226.07;81.85;;;;;;;8.04;63.41;100031.38;4944920;28;123139;-81
2021/12/29 10:17:42;;;;;;;231.82;83.63;;;;;;;8.09;63.78;100043.69;4933775;28;120246;-81
2021/12/29 10:20:12;;;;;;;225.45;85.13;;;;;;;8.05;63.57;100027.47;4977273;28;119736;-81
2021/12/29 10:22:39;;;;;;;220.95;84.45;;;;;;;8.16;64.02;100043.44;4942538;28;122410;-80
2021/12/29 10:25:14;;;;;;;223.80;83.25;;;;;;;8.16;64.01;100046.91;4962094;28;120494;-79
2021/12/29 10:27:41;;;;;;;261.52;87.22;;;;;;;8.08;63.47;100051.13;4945972;28;119485;-80
2021/12/29 10:30:25;;;;;;;220.98;85.45;;;;;;;8.10;63.76;100058.88;4980352;28;120382;-79
2021/12/29 10:32:51;;;;;;;;;;;;;;;8.24;63.64;100085.66;4965895;28;119563;-78
2021/12/29 10:35:33;;;;;;;188.18;81.50;;;;;;;8.32;63.42;100078.72;4965757;28;122248;-79
2021/12/29 10:38:13;;;;;;;179.70;76.15;;;;;;;8.37;63.48;100085.59;4979829;28;120830;-80
2021/12/29 10:40:39;;;;;;;176.63;74.00;;;;;;;8.37;63.36;100091.81;4965359;28;120694;-81
2021/12/29 10:43:05;;;;;;;194.85;75.78;;;;;;;8.33;63.74;100085.72;4963000;28;121125;-81
2021/12/29 10:45:36;;;;;;;184.00;76.45;;;;;;;8.38;63.62;100078.91;4959729;28;119493;-80
2021/12/29 10:48:25;;;;;;;174.18;75.57;;;;;;;8.45;63.29;100103.22;4968844;28;121850;-79
2021/12/29 10:51:02;;;;;;;168.82;73.18;;;;;;;8.47;62.71;100100.81;4958251;28;120058;-79
2021/12/29 10:53:35;;;;;;;164.98;73.63;;;;;;;8.46;63.39;100091.84;4951073;28;119902;-80
2021/12/29 10:56:02;;;;;;;227.00;75.90;;;;;;;8.51;63.10;100094.00;4948035;28;122808;-81
2021/12/29 10:58:32;;;;;;;173.95;75.25;;;;;;;8.50;62.46;100084.25;4971288;28;124529;-80
2021/12/29 11:01:00;;;;;;;191.80;75.88;;;;;;;8.54;62.91;100082.19;4967098;28;119842;-82
2021/12/29 11:03:27;;;;;;;235.52;76.28;;;;;;;8.53;62.66;100072.44;4980779;28;119812;-81
2021/12/29 11:05:58;;;;;;;183.27;72.60;;;;;;;8.55;62.89;100082.94;4976080;28;120876;-80
2021/12/29 11:08:29;;;;;;;192.10;73.40;;;;;;;8.50;62.81;100072.56;4962548;28;120828;-78
2021/12/29 11:11:05;;;;;;;223.85;72.68;;;;;;;8.56;63.03;100071.56;4967842;28;123080;-79
2021/12/29 11:13:31;;;;;;;190.07;72.75;;;;;;;8.50;63.05;100051.47;4957804;28;119875;-81
2021/12/29 11:16:00;;;;;;;188.68;77.50;;;;;;;8.56;63.19;100081.72;4958350;28;119782;-79
2021/12/29 11:18:26;;;;;;;185.93;72.65;;;;;;;8.46;62.97;100069.22;4982543;28;122059;-77